sensor_id;sensor_type;location;lat;lon;timestamp;temperature;humidity
8095;DHT22;4090;49.270;8.696;2024-03-02T00:01:27;7.80;99.90
8095;DHT22;4090;49.270;8.696;2024-03-02T00:04:09;7.80;99.90
8095;DHT22;4090;49.270;8.696;2024-03-02T00:06:51;7.80;99.90
8095;DHT22;4090;49.270;8.696;2024-03-02T00:09:35;7.80;99.90
8095;DHT22;4090;49.270;8.696;2024-03-02T00:12:17;7.80;99.90
8095;DHT22;4090;49.270;8.696;2024-03-02T00:14:59;7.80;99.90
8095;DHT22;4090;49.270;8.696;2024-03-02T00:17:44;7.80;99.90
8095;DHT22;4090;49.270;8.696;2024-03-02T00:20:27;7.80;99.90
8095;DHT22;4090;49.270;8.696;2024-03-02T00:23:10;7.80;99.90
8095;DHT22;4090;49.270;8.696;2024-03-02T00:25:53;7.80;99.90
8095;DHT22;4090;49.270;8.696;2024-03-02T00:28:36;7.80;99.90
8095;DHT22;4090;49.270;8.696;2024-03-02T00:31:20;7.80;99.90
8095;DHT22;4090;49.270;8.696;2024-03-02T00:34:05;7.70;99.90
8095;DHT22;4090;49.270;8.696;2024-03-02T00:36:47;7.70;99.90
8095;DHT22;4090;49.270;8.696;2024-03-02T00:39:32;7.70;99.90
8095;DHT22;4090;49.270;8.696;2024-03-02T00:42:14;7.70;99.90
8095;DHT22;4090;49.270;8.696;2024-03-02T00:44:56;7.70;99.90
8095;DHT22;4090;49.270;8.696;2024-03-02T00:47:38;7.70;99.90
8095;DHT22;4090;49.270;8.696;2024-03-02T00:50:21;7.70;99.90
8095;DHT22;4090;49.270;8.696;2024-03-02T00:53:03;7.70;99.90
8095;DHT22;4090;49.270;8.696;2024-03-02T00:55:46;7.70;99.90
8095;DHT22;4090;49.270;8.696;2024-03-02T00:58:29;7.70;99.90
8095;DHT22;4090;49.270;8.696;2024-03-02T01:01:11;7.70;99.90
8095;DHT22;4090;49.270;8.696;2024-03-02T01:03:53;7.70;99.90
8095;DHT22;4090;49.270;8.696;2024-03-02T01:06:36;7.70;99.90
8095;DHT22;4090;49.270;8.696;2024-03-02T01:09:18;7.60;99.90
8095;DHT22;4090;49.270;8.696;2024-03-02T01:12:01;7.60;99.90
8095;DHT22;4090;49.270;8.696;2024-03-02T01:14:43;7.70;99.90
8095;DHT22;4090;49.270;8.696;2024-03-02T01:17:24;7.60;99.90
8095;DHT22;4090;49.270;8.696;2024-03-02T01:20:08;7.60;99.90
8095;DHT22;4090;49.270;8.696;2024-03-02T01:22:51;7.60;99.90
8095;DHT22;4090;49.270;8.696;2024-03-02T01:25:33;7.60;99.90
8095;DHT22;4090;49.270;8.696;2024-03-02T01:28:16;7.60;99.90
8095;DHT22;4090;49.270;8.696;2024-03-02T01:30:58;7.60;99.90
8095;DHT22;4090;49.270;8.696;2024-03-02T01:33:40;7.60;99.90
8095;DHT22;4090;49.270;8.696;2024-03-02T01:36:21;7.60;99.90
8095;DHT22;4090;49.270;8.696;2024-03-02T01:39:05;7.60;99.90
8095;DHT22;4090;49.270;8.696;2024-03-02T01:41:49;7.60;99.90
8095;DHT22;4090;49.270;8.696;2024-03-02T01:44:31;7.60;99.90
8095;DHT22;4090;49.270;8.696;2024-03-02T01:47:13;7.60;99.90
8095;DHT22;4090;49.270;8.696;2024-03-02T01:49:55;7.50;99.90
8095;DHT22;4090;49.270;8.696;2024-03-02T01:52:37;7.50;99.90
8095;DHT22;4090;49.270;8.696;2024-03-02T01:55:20;7.50;99.90
8095;DHT22;4090;49.270;8.696;2024-03-02T01:58:02;7.50;99.90
8095;DHT22;4090;49.270;8.696;2024-03-02T02:00:44;7.50;99.90
8095;DHT22;4090;49.270;8.696;2024-03-02T02:03:26;7.50;99.90
8095;DHT22;4090;49.270;8.696;2024-03-02T02:06:08;7.50;99.90
8095;DHT22;4090;49.270;8.696;2024-03-02T02:08:50;7.40;99.90
8095;DHT22;4090;49.270;8.696;2024-03-02T02:11:33;7.40;99.90
8095;DHT22;4090;49.270;8.696;2024-03-02T02:14:15;7.40;99.90
8095;DHT22;4090;49.270;8.696;2024-03-02T02:16:57;7.40;99.90
8095;DHT22;4090;49.270;8.696;2024-03-02T02:19:40;7.30;99.90
8095;DHT22;4090;49.270;8.696;2024-03-02T02:22:23;7.40;99.90
8095;DHT22;4090;49.270;8.696;2024-03-02T02:25:06;7.40;99.90
8095;DHT22;4090;49.270;8.696;2024-03-02T02:27:47;7.40;99.90
8095;DHT22;4090;49.270;8.696;2024-03-02T02:30:31;7.40;99.90
8095;DHT22;4090;49.270;8.696;2024-03-02T02:33:13;7.40;99.90
8095;DHT22;4090;49.270;8.696;2024-03-02T02:35:55;7.40;99.90
8095;DHT22;4090;49.270;8.696;2024-03-02T02:38:42;7.40;99.90
8095;DHT22;4090;49.270;8.696;2024-03-02T02:41:25;7.40;99.90
8095;DHT22;4090;49.270;8.696;2024-03-02T02:44:07;7.40;99.90
8095;DHT22;4090;49.270;8.696;2024-03-02T02:46:49;7.40;99.90
8095;DHT22;4090;49.270;8.696;2024-03-02T02:49:31;7.30;99.90
8095;DHT22;4090;49.270;8.696;2024-03-02T02:52:13;7.30;99.90
8095;DHT22;4090;49.270;8.696;2024-03-02T02:54:56;7.30;99.90
8095;DHT22;4090;49.270;8.696;2024-03-02T02:57:39;7.30;99.90
8095;DHT22;4090;49.270;8.696;2024-03-02T03:00:22;7.30;99.90
8095;DHT22;4090;49.270;8.696;2024-03-02T03:03:04;7.20;99.90
8095;DHT22;4090;49.270;8.696;2024-03-02T03:05:46;7.20;99.90
8095;DHT22;4090;49.270;8.696;2024-03-02T03:08:28;7.20;99.90
8095;DHT22;4090;49.270;8.696;2024-03-02T03:11:11;7.20;99.90
8095;DHT22;4090;49.270;8.696;2024-03-02T03:13:53;7.20;99.90
8095;DHT22;4090;49.270;8.696;2024-03-02T03:16:36;7.20;99.90
8095;DHT22;4090;49.270;8.696;2024-03-02T03:19:17;7.10;99.90
8095;DHT22;4090;49.270;8.696;2024-03-02T03:21:59;7.10;99.90
8095;DHT22;4090;49.270;8.696;2024-03-02T03:24:41;7.10;99.90
8095;DHT22;4090;49.270;8.696;2024-03-02T03:27:24;7.10;99.90
8095;DHT22;4090;49.270;8.696;2024-03-02T03:30:07;7.10;99.90
8095;DHT22;4090;49.270;8.696;2024-03-02T03:32:49;7.10;99.90
8095;DHT22;4090;49.270;8.696;2024-03-02T03:35:31;7.10;99.90
8095;DHT22;4090;49.270;8.696;2024-03-02T03:38:13;7.00;99.90
8095;DHT22;4090;49.270;8.696;2024-03-02T03:40:55;7.00;99.90
8095;DHT22;4090;49.270;8.696;2024-03-02T03:43:38;7.00;99.90
8095;DHT22;4090;49.270;8.696;2024-03-02T03:46:20;7.00;99.90
8095;DHT22;4090;49.270;8.696;2024-03-02T03:49:01;7.00;99.90
8095;DHT22;4090;49.270;8.696;2024-03-02T03:51:44;7.00;99.90
8095;DHT22;4090;49.270;8.696;2024-03-02T03:54:26;6.90;99.90
8095;DHT22;4090;49.270;8.696;2024-03-02T03:57:08;6.90;99.90
8095;DHT22;4090;49.270;8.696;2024-03-02T03:59:51;6.90;99.90
8095;DHT22;4090;49.270;8.696;2024-03-02T04:02:33;6.90;99.90
8095;DHT22;4090;49.270;8.696;2024-03-02T04:05:15;6.90;99.90
8095;DHT22;4090;49.270;8.696;2024-03-02T04:07:57;6.90;99.90
8095;DHT22;4090;49.270;8.696;2024-03-02T04:10:40;6.90;99.90
8095;DHT22;4090;49.270;8.696;2024-03-02T04:13:22;6.90;99.90
8095;DHT22;4090;49.270;8.696;2024-03-02T04:16:06;6.90;99.90
8095;DHT22;4090;49.270;8.696;2024-03-02T04:18:48;6.90;99.90
8095;DHT22;4090;49.270;8.696;2024-03-02T04:21:29;6.90;99.90
8095;DHT22;4090;49.270;8.696;2024-03-02T04:24:11;6.90;99.90
8095;DHT22;4090;49.270;8.696;2024-03-02T04:26:53;6.90;99.90
8095;DHT22;4090;49.270;8.696;2024-03-02T04:29:35;6.90;99.90
8095;DHT22;4090;49.270;8.696;2024-03-02T04:32:18;6.90;99.90
8095;DHT22;4090;49.270;8.696;2024-03-02T04:35:01;6.80;99.90
8095;DHT22;4090;49.270;8.696;2024-03-02T04:37:43;6.80;99.90
8095;DHT22;4090;49.270;8.696;2024-03-02T04:40:24;6.90;99.90
8095;DHT22;4090;49.270;8.696;2024-03-02T04:43:06;6.80;99.90
8095;DHT22;4090;49.270;8.696;2024-03-02T04:45:49;6.80;99.90
8095;DHT22;4090;49.270;8.696;2024-03-02T04:48:32;6.80;99.90
8095;DHT22;4090;49.270;8.696;2024-03-02T04:51:14;6.80;99.90
8095;DHT22;4090;49.270;8.696;2024-03-02T04:53:56;6.80;99.90
8095;DHT22;4090;49.270;8.696;2024-03-02T04:56:38;6.70;99.90
8095;DHT22;4090;49.270;8.696;2024-03-02T04:59:24;6.70;99.90
8095;DHT22;4090;49.270;8.696;2024-03-02T05:02:06;6.70;99.90
8095;DHT22;4090;49.270;8.696;2024-03-02T05:04:49;6.60;99.90
8095;DHT22;4090;49.270;8.696;2024-03-02T05:07:32;6.70;99.90
8095;DHT22;4090;49.270;8.696;2024-03-02T05:10:14;6.60;99.90
8095;DHT22;4090;49.270;8.696;2024-03-02T05:12:56;6.70;99.90
8095;DHT22;4090;49.270;8.696;2024-03-02T05:15:40;6.70;99.90
8095;DHT22;4090;49.270;8.696;2024-03-02T05:18:22;6.70;99.90
8095;DHT22;4090;49.270;8.696;2024-03-02T05:21:06;6.70;99.90
8095;DHT22;4090;49.270;8.696;2024-03-02T05:23:47;6.70;99.90
8095;DHT22;4090;49.270;8.696;2024-03-02T05:26:29;6.70;99.90
8095;DHT22;4090;49.270;8.696;2024-03-02T05:29:11;6.70;99.90
8095;DHT22;4090;49.270;8.696;2024-03-02T05:31:53;6.70;99.90
8095;DHT22;4090;49.270;8.696;2024-03-02T05:34:35;6.60;99.90
8095;DHT22;4090;49.270;8.696;2024-03-02T05:37:18;6.70;99.90
8095;DHT22;4090;49.270;8.696;2024-03-02T05:40:00;6.60;99.90
8095;DHT22;4090;49.270;8.696;2024-03-02T05:42:43;6.60;99.90
8095;DHT22;4090;49.270;8.696;2024-03-02T05:45:24;6.60;99.90
8095;DHT22;4090;49.270;8.696;2024-03-02T05:48:07;6.70;99.90
8095;DHT22;4090;49.270;8.696;2024-03-02T05:50:49;6.60;99.90
8095;DHT22;4090;49.270;8.696;2024-03-02T05:53:32;6.60;99.90
8095;DHT22;4090;49.270;8.696;2024-03-02T05:56:14;6.70;99.90
8095;DHT22;4090;49.270;8.696;2024-03-02T05:58:56;6.70;99.90
8095;DHT22;4090;49.270;8.696;2024-03-02T06:01:49;6.60;99.90
8095;DHT22;4090;49.270;8.696;2024-03-02T06:04:32;6.60;99.90
8095;DHT22;4090;49.270;8.696;2024-03-02T06:07:14;6.60;99.90
8095;DHT22;4090;49.270;8.696;2024-03-02T06:09:57;6.70;99.90
8095;DHT22;4090;49.270;8.696;2024-03-02T06:12:39;6.60;99.90
8095;DHT22;4090;49.270;8.696;2024-03-02T06:15:21;6.70;99.90
8095;DHT22;4090;49.270;8.696;2024-03-02T06:18:03;6.60;99.90
8095;DHT22;4090;49.270;8.696;2024-03-02T06:20:47;6.60;99.90
8095;DHT22;4090;49.270;8.696;2024-03-02T06:23:29;6.60;99.90
8095;DHT22;4090;49.270;8.696;2024-03-02T06:26:13;6.70;99.90
8095;DHT22;4090;49.270;8.696;2024-03-02T06:28:54;6.70;99.90
8095;DHT22;4090;49.270;8.696;2024-03-02T06:31:36;6.70;99.90
8095;DHT22;4090;49.270;8.696;2024-03-02T06:34:18;6.70;99.90
8095;DHT22;4090;49.270;8.696;2024-03-02T06:37:00;6.60;99.90
8095;DHT22;4090;49.270;8.696;2024-03-02T06:39:43;6.60;99.90
8095;DHT22;4090;49.270;8.696;2024-03-02T06:42:27;6.60;99.90
8095;DHT22;4090;49.270;8.696;2024-03-02T06:45:15;6.60;99.90
8095;DHT22;4090;49.270;8.696;2024-03-02T06:47:57;6.60;99.90
8095;DHT22;4090;49.270;8.696;2024-03-02T06:50:38;6.60;99.90
8095;DHT22;4090;49.270;8.696;2024-03-02T06:53:20;6.60;99.90
8095;DHT22;4090;49.270;8.696;2024-03-02T06:56:03;6.60;99.90
8095;DHT22;4090;49.270;8.696;2024-03-02T06:58:47;6.60;99.90
8095;DHT22;4090;49.270;8.696;2024-03-02T07:01:29;6.60;99.90
8095;DHT22;4090;49.270;8.696;2024-03-02T07:04:10;6.60;99.90
8095;DHT22;4090;49.270;8.696;2024-03-02T07:06:52;6.60;99.90
8095;DHT22;4090;49.270;8.696;2024-03-02T07:09:35;6.60;99.90
8095;DHT22;4090;49.270;8.696;2024-03-02T07:12:17;6.60;99.90
8095;DHT22;4090;49.270;8.696;2024-03-02T07:15:00;6.60;99.90
8095;DHT22;4090;49.270;8.696;2024-03-02T07:18:10;6.60;99.90
8095;DHT22;4090;49.270;8.696;2024-03-02T07:20:52;6.60;99.90
8095;DHT22;4090;49.270;8.696;2024-03-02T07:23:34;6.50;99.90
8095;DHT22;4090;49.270;8.696;2024-03-02T07:26:16;6.50;99.90
8095;DHT22;4090;49.270;8.696;2024-03-02T07:28:58;6.50;99.90
8095;DHT22;4090;49.270;8.696;2024-03-02T07:31:42;6.50;99.90
8095;DHT22;4090;49.270;8.696;2024-03-02T07:34:23;6.50;99.90
8095;DHT22;4090;49.270;8.696;2024-03-02T07:37:05;6.50;99.90
8095;DHT22;4090;49.270;8.696;2024-03-02T07:39:47;6.50;99.90
8095;DHT22;4090;49.270;8.696;2024-03-02T07:42:29;6.50;99.90
8095;DHT22;4090;49.270;8.696;2024-03-02T07:45:11;6.50;99.90
8095;DHT22;4090;49.270;8.696;2024-03-02T07:47:54;6.50;99.90
8095;DHT22;4090;49.270;8.696;2024-03-02T07:50:36;6.60;99.90
8095;DHT22;4090;49.270;8.696;2024-03-02T07:53:19;6.50;99.90
8095;DHT22;4090;49.270;8.696;2024-03-02T07:56:01;6.60;99.90
8095;DHT22;4090;49.270;8.696;2024-03-02T07:58:43;6.60;99.90
8095;DHT22;4090;49.270;8.696;2024-03-02T08:01:26;6.60;99.90
8095;DHT22;4090;49.270;8.696;2024-03-02T08:04:09;6.60;99.90
8095;DHT22;4090;49.270;8.696;2024-03-02T08:06:51;6.60;99.90
8095;DHT22;4090;49.270;8.696;2024-03-02T08:09:33;6.60;99.90
8095;DHT22;4090;49.270;8.696;2024-03-02T08:12:15;6.60;99.90
8095;DHT22;4090;49.270;8.696;2024-03-02T08:14:57;6.60;99.90
8095;DHT22;4090;49.270;8.696;2024-03-02T08:17:39;6.70;99.90
8095;DHT22;4090;49.270;8.696;2024-03-02T08:20:26;6.60;99.90
8095;DHT22;4090;49.270;8.696;2024-03-02T08:23:08;6.70;99.90
8095;DHT22;4090;49.270;8.696;2024-03-02T08:25:50;6.70;99.90
8095;DHT22;4090;49.270;8.696;2024-03-02T08:28:32;6.70;99.90
8095;DHT22;4090;49.270;8.696;2024-03-02T08:31:14;6.70;99.90
8095;DHT22;4090;49.270;8.696;2024-03-02T08:33:56;6.80;99.90
8095;DHT22;4090;49.270;8.696;2024-03-02T08:36:40;6.80;99.90
8095;DHT22;4090;49.270;8.696;2024-03-02T08:39:22;6.80;99.90
8095;DHT22;4090;49.270;8.696;2024-03-02T08:42:05;6.80;99.90
8095;DHT22;4090;49.270;8.696;2024-03-02T08:44:47;6.90;99.90
8095;DHT22;4090;49.270;8.696;2024-03-02T08:47:28;6.90;99.90
8095;DHT22;4090;49.270;8.696;2024-03-02T08:50:10;6.90;99.90
8095;DHT22;4090;49.270;8.696;2024-03-02T08:52:53;6.90;99.90
8095;DHT22;4090;49.270;8.696;2024-03-02T08:55:35;6.90;99.90
8095;DHT22;4090;49.270;8.696;2024-03-02T08:58:17;7.00;99.90
8095;DHT22;4090;49.270;8.696;2024-03-02T09:01:00;7.00;99.90
8095;DHT22;4090;49.270;8.696;2024-03-02T09:03:43;7.00;99.90
8095;DHT22;4090;49.270;8.696;2024-03-02T09:06:26;7.00;99.90
8095;DHT22;4090;49.270;8.696;2024-03-02T09:09:09;7.10;99.90
8095;DHT22;4090;49.270;8.696;2024-03-02T09:11:51;7.10;99.90
8095;DHT22;4090;49.270;8.696;2024-03-02T09:14:36;7.10;99.90
8095;DHT22;4090;49.270;8.696;2024-03-02T09:17:18;7.10;99.90
8095;DHT22;4090;49.270;8.696;2024-03-02T09:20:00;7.20;99.90
8095;DHT22;4090;49.270;8.696;2024-03-02T09:22:42;7.20;99.90
8095;DHT22;4090;49.270;8.696;2024-03-02T09:25:25;7.20;99.90
8095;DHT22;4090;49.270;8.696;2024-03-02T09:28:07;7.30;99.90
8095;DHT22;4090;49.270;8.696;2024-03-02T09:30:48;7.30;99.90
8095;DHT22;4090;49.270;8.696;2024-03-02T09:33:30;7.40;99.90
8095;DHT22;4090;49.270;8.696;2024-03-02T09:36:19;7.40;99.90
8095;DHT22;4090;49.270;8.696;2024-03-02T09:39:01;7.40;99.90
8095;DHT22;4090;49.270;8.696;2024-03-02T09:41:45;7.40;99.90
8095;DHT22;4090;49.270;8.696;2024-03-02T09:44:29;7.50;99.90
8095;DHT22;4090;49.270;8.696;2024-03-02T09:47:11;7.50;99.90
8095;DHT22;4090;49.270;8.696;2024-03-02T09:49:52;7.60;99.90
8095;DHT22;4090;49.270;8.696;2024-03-02T09:52:36;7.60;99.90
8095;DHT22;4090;49.270;8.696;2024-03-02T09:55:19;7.60;99.90
8095;DHT22;4090;49.270;8.696;2024-03-02T09:58:03;7.70;99.90
8095;DHT22;4090;49.270;8.696;2024-03-02T10:00:45;7.70;99.90
8095;DHT22;4090;49.270;8.696;2024-03-02T10:03:29;7.80;99.90
8095;DHT22;4090;49.270;8.696;2024-03-02T10:06:18;7.80;99.90
8095;DHT22;4090;49.270;8.696;2024-03-02T10:09:00;7.90;99.90
8095;DHT22;4090;49.270;8.696;2024-03-02T10:11:42;7.90;99.90
8095;DHT22;4090;49.270;8.696;2024-03-02T10:14:25;8.00;99.90
8095;DHT22;4090;49.270;8.696;2024-03-02T10:17:08;8.10;99.90
8095;DHT22;4090;49.270;8.696;2024-03-02T10:19:51;8.10;99.90
8095;DHT22;4090;49.270;8.696;2024-03-02T10:22:32;8.30;99.90
8095;DHT22;4090;49.270;8.696;2024-03-02T10:25:29;8.40;99.90
8095;DHT22;4090;49.270;8.696;2024-03-02T10:28:15;8.50;99.90
8095;DHT22;4090;49.270;8.696;2024-03-02T10:30:58;8.50;99.90
8095;DHT22;4090;49.270;8.696;2024-03-02T10:33:40;8.50;99.90
8095;DHT22;4090;49.270;8.696;2024-03-02T10:36:22;8.60;99.90
8095;DHT22;4090;49.270;8.696;2024-03-02T10:39:07;8.60;99.90
8095;DHT22;4090;49.270;8.696;2024-03-02T10:41:49;8.70;99.90
8095;DHT22;4090;49.270;8.696;2024-03-02T10:44:33;8.80;99.90
8095;DHT22;4090;49.270;8.696;2024-03-02T10:47:18;8.80;99.90
8095;DHT22;4090;49.270;8.696;2024-03-02T10:50:02;8.90;99.90
8095;DHT22;4090;49.270;8.696;2024-03-02T10:52:48;9.00;99.90
8095;DHT22;4090;49.270;8.696;2024-03-02T10:55:30;9.10;99.90
8095;DHT22;4090;49.270;8.696;2024-03-02T10:58:13;9.20;99.90
8095;DHT22;4090;49.270;8.696;2024-03-02T11:00:56;9.20;99.90
8095;DHT22;4090;49.270;8.696;2024-03-02T11:03:40;9.30;99.90
8095;DHT22;4090;49.270;8.696;2024-03-02T11:06:22;9.40;99.90
8095;DHT22;4090;49.270;8.696;2024-03-02T11:09:08;9.50;99.90
8095;DHT22;4090;49.270;8.696;2024-03-02T11:11:56;9.50;99.90
8095;DHT22;4090;49.270;8.696;2024-03-02T11:14:42;9.60;99.90
8095;DHT22;4090;49.270;8.696;2024-03-02T11:17:24;9.70;99.90
8095;DHT22;4090;49.270;8.696;2024-03-02T11:20:09;9.80;99.90
8095;DHT22;4090;49.270;8.696;2024-03-02T11:22:51;9.70;99.90
8095;DHT22;4090;49.270;8.696;2024-03-02T11:25:33;9.80;99.90
8095;DHT22;4090;49.270;8.696;2024-03-02T11:28:15;9.90;99.90
8095;DHT22;4090;49.270;8.696;2024-03-02T11:31:16;10.00;99.90
8095;DHT22;4090;49.270;8.696;2024-03-02T11:34:17;10.10;99.90
8095;DHT22;4090;49.270;8.696;2024-03-02T11:37:01;10.20;99.90
8095;DHT22;4090;49.270;8.696;2024-03-02T11:39:44;10.20;99.90
8095;DHT22;4090;49.270;8.696;2024-03-02T11:42:26;10.30;99.90
8095;DHT22;4090;49.270;8.696;2024-03-02T11:45:09;10.60;99.90
8095;DHT22;4090;49.270;8.696;2024-03-02T11:47:51;10.70;99.90
8095;DHT22;4090;49.270;8.696;2024-03-02T11:50:35;10.80;99.90
8095;DHT22;4090;49.270;8.696;2024-03-02T11:53:20;10.80;99.90
8095;DHT22;4090;49.270;8.696;2024-03-02T11:56:03;10.80;99.90
8095;DHT22;4090;49.270;8.696;2024-03-02T11:58:46;11.00;99.90
8095;DHT22;4090;49.270;8.696;2024-03-02T12:01:29;10.90;99.90
8095;DHT22;4090;49.270;8.696;2024-03-02T12:04:11;11.10;99.90
8095;DHT22;4090;49.270;8.696;2024-03-02T12:06:56;11.20;99.90
8095;DHT22;4090;49.270;8.696;2024-03-02T12:09:41;11.20;99.90
8095;DHT22;4090;49.270;8.696;2024-03-02T12:12:23;11.30;99.90
8095;DHT22;4090;49.270;8.696;2024-03-02T12:15:06;11.30;99.90
8095;DHT22;4090;49.270;8.696;2024-03-02T12:17:48;11.30;99.90
8095;DHT22;4090;49.270;8.696;2024-03-02T12:20:30;11.30;99.90
8095;DHT22;4090;49.270;8.696;2024-03-02T12:23:12;11.40;99.90
8095;DHT22;4090;49.270;8.696;2024-03-02T12:25:56;11.50;99.90
8095;DHT22;4090;49.270;8.696;2024-03-02T12:28:38;11.60;99.90
8095;DHT22;4090;49.270;8.696;2024-03-02T12:31:20;11.70;99.90
8095;DHT22;4090;49.270;8.696;2024-03-02T12:34:02;11.80;99.90
8095;DHT22;4090;49.270;8.696;2024-03-02T12:36:46;12.00;99.90
8095;DHT22;4090;49.270;8.696;2024-03-02T12:39:30;12.20;99.90
8095;DHT22;4090;49.270;8.696;2024-03-02T12:42:14;12.20;99.90
8095;DHT22;4090;49.270;8.696;2024-03-02T12:47:40;12.20;99.90
8095;DHT22;4090;49.270;8.696;2024-03-02T12:50:22;12.10;99.90
8095;DHT22;4090;49.270;8.696;2024-03-02T12:53:04;12.10;99.90
8095;DHT22;4090;49.270;8.696;2024-03-02T12:55:45;12.20;99.90
8095;DHT22;4090;49.270;8.696;2024-03-02T12:58:29;12.40;99.90
8095;DHT22;4090;49.270;8.696;2024-03-02T13:01:14;12.50;99.90
8095;DHT22;4090;49.270;8.696;2024-03-02T13:03:59;12.50;99.90
8095;DHT22;4090;49.270;8.696;2024-03-02T13:06:41;12.50;99.90
8095;DHT22;4090;49.270;8.696;2024-03-02T13:09:23;12.50;99.90
8095;DHT22;4090;49.270;8.696;2024-03-02T13:12:06;12.70;99.90
8095;DHT22;4090;49.270;8.696;2024-03-02T13:14:50;12.80;99.90
8095;DHT22;4090;49.270;8.696;2024-03-02T13:17:34;12.80;99.90
8095;DHT22;4090;49.270;8.696;2024-03-02T13:20:16;12.80;99.90
8095;DHT22;4090;49.270;8.696;2024-03-02T13:22:59;12.90;99.90
8095;DHT22;4090;49.270;8.696;2024-03-02T13:25:42;13.00;99.90
8095;DHT22;4090;49.270;8.696;2024-03-02T13:28:23;13.00;99.90
8095;DHT22;4090;49.270;8.696;2024-03-02T13:31:07;13.10;99.90
8095;DHT22;4090;49.270;8.696;2024-03-02T13:33:49;13.10;99.90
8095;DHT22;4090;49.270;8.696;2024-03-02T13:36:30;13.10;99.90
8095;DHT22;4090;49.270;8.696;2024-03-02T13:39:12;13.20;99.90
8095;DHT22;4090;49.270;8.696;2024-03-02T13:42:05;13.20;99.90
8095;DHT22;4090;49.270;8.696;2024-03-02T13:44:49;13.30;99.90
8095;DHT22;4090;49.270;8.696;2024-03-02T13:47:33;13.20;99.90
8095;DHT22;4090;49.270;8.696;2024-03-02T13:50:15;13.20;99.90
8095;DHT22;4090;49.270;8.696;2024-03-02T13:52:57;13.20;99.90
8095;DHT22;4090;49.270;8.696;2024-03-02T13:55:39;13.30;99.90
8095;DHT22;4090;49.270;8.696;2024-03-02T13:58:22;13.40;99.90
8095;DHT22;4090;49.270;8.696;2024-03-02T14:01:04;13.50;99.90
8095;DHT22;4090;49.270;8.696;2024-03-02T14:03:48;13.50;99.90
8095;DHT22;4090;49.270;8.696;2024-03-02T14:06:30;13.50;99.90
8095;DHT22;4090;49.270;8.696;2024-03-02T14:09:12;13.50;99.90
8095;DHT22;4090;49.270;8.696;2024-03-02T14:11:54;13.60;99.90
8095;DHT22;4090;49.270;8.696;2024-03-02T14:14:36;13.80;99.90
8095;DHT22;4090;49.270;8.696;2024-03-02T14:17:18;13.90;99.90
8095;DHT22;4090;49.270;8.696;2024-03-02T14:20:02;13.90;99.90
8095;DHT22;4090;49.270;8.696;2024-03-02T14:22:45;14.00;99.90
8095;DHT22;4090;49.270;8.696;2024-03-02T14:25:27;13.90;99.90
8095;DHT22;4090;49.270;8.696;2024-03-02T14:28:11;13.90;99.90
8095;DHT22;4090;49.270;8.696;2024-03-02T14:30:53;13.90;99.90
8095;DHT22;4090;49.270;8.696;2024-03-02T14:33:35;13.90;99.90
8095;DHT22;4090;49.270;8.696;2024-03-02T14:36:18;13.90;99.90
8095;DHT22;4090;49.270;8.696;2024-03-02T14:39:00;13.90;99.90
8095;DHT22;4090;49.270;8.696;2024-03-02T14:41:44;13.90;99.90
8095;DHT22;4090;49.270;8.696;2024-03-02T14:44:26;13.90;99.90
8095;DHT22;4090;49.270;8.696;2024-03-02T14:47:08;13.90;99.90
8095;DHT22;4090;49.270;8.696;2024-03-02T14:49:50;13.80;99.90
8095;DHT22;4090;49.270;8.696;2024-03-02T14:52:33;13.80;99.90
8095;DHT22;4090;49.270;8.696;2024-03-02T14:55:15;13.90;99.90
8095;DHT22;4090;49.270;8.696;2024-03-02T14:57:57;14.00;99.90
8095;DHT22;4090;49.270;8.696;2024-03-02T15:00:39;14.00;99.90
8095;DHT22;4090;49.270;8.696;2024-03-02T15:03:21;14.00;99.90
8095;DHT22;4090;49.270;8.696;2024-03-02T15:06:03;13.90;99.90
8095;DHT22;4090;49.270;8.696;2024-03-02T15:08:47;13.90;99.90
8095;DHT22;4090;49.270;8.696;2024-03-02T15:11:29;13.90;99.90
8095;DHT22;4090;49.270;8.696;2024-03-02T15:14:11;13.90;99.90
8095;DHT22;4090;49.270;8.696;2024-03-02T15:16:53;13.90;99.90
8095;DHT22;4090;49.270;8.696;2024-03-02T15:19:36;13.80;99.90
8095;DHT22;4090;49.270;8.696;2024-03-02T15:22:18;13.80;99.90
8095;DHT22;4090;49.270;8.696;2024-03-02T15:25:01;13.70;99.90
8095;DHT22;4090;49.270;8.696;2024-03-02T15:27:43;13.70;99.90
8095;DHT22;4090;49.270;8.696;2024-03-02T15:30:25;13.70;99.90
8095;DHT22;4090;49.270;8.696;2024-03-02T15:33:07;13.70;99.90
8095;DHT22;4090;49.270;8.696;2024-03-02T15:35:49;13.70;99.90
8095;DHT22;4090;49.270;8.696;2024-03-02T15:38:31;13.60;99.90
8095;DHT22;4090;49.270;8.696;2024-03-02T15:41:15;13.50;99.90
8095;DHT22;4090;49.270;8.696;2024-03-02T15:43:57;13.50;99.90
8095;DHT22;4090;49.270;8.696;2024-03-02T15:46:38;13.40;99.90
8095;DHT22;4090;49.270;8.696;2024-03-02T15:49:20;13.30;99.90
8095;DHT22;4090;49.270;8.696;2024-03-02T15:52:03;13.30;99.90
8095;DHT22;4090;49.270;8.696;2024-03-02T15:54:45;13.30;99.90
8095;DHT22;4090;49.270;8.696;2024-03-02T15:57:28;13.20;99.90
8095;DHT22;4090;49.270;8.696;2024-03-02T16:00:11;13.20;99.90
8095;DHT22;4090;49.270;8.696;2024-03-02T16:02:53;13.20;99.90
8095;DHT22;4090;49.270;8.696;2024-03-02T16:05:35;13.10;99.90
8095;DHT22;4090;49.270;8.696;2024-03-02T16:08:17;13.10;99.90
8095;DHT22;4090;49.270;8.696;2024-03-02T16:10:59;13.10;99.90
8095;DHT22;4090;49.270;8.696;2024-03-02T16:13:42;13.00;99.90
8095;DHT22;4090;49.270;8.696;2024-03-02T16:16:25;13.00;99.90
8095;DHT22;4090;49.270;8.696;2024-03-02T16:19:07;13.00;99.90
8095;DHT22;4090;49.270;8.696;2024-03-02T16:21:49;12.90;99.90
8095;DHT22;4090;49.270;8.696;2024-03-02T16:24:31;12.90;99.90
8095;DHT22;4090;49.270;8.696;2024-03-02T16:27:13;12.90;99.90
8095;DHT22;4090;49.270;8.696;2024-03-02T16:29:56;12.90;99.90
8095;DHT22;4090;49.270;8.696;2024-03-02T16:32:39;12.80;99.90
8095;DHT22;4090;49.270;8.696;2024-03-02T16:35:21;12.80;99.90
8095;DHT22;4090;49.270;8.696;2024-03-02T16:38:04;12.70;99.90
8095;DHT22;4090;49.270;8.696;2024-03-02T16:40:46;12.70;99.90
8095;DHT22;4090;49.270;8.696;2024-03-02T16:43:28;12.70;99.90
8095;DHT22;4090;49.270;8.696;2024-03-02T16:46:12;12.70;99.90
8095;DHT22;4090;49.270;8.696;2024-03-02T16:48:53;12.70;99.90
8095;DHT22;4090;49.270;8.696;2024-03-02T16:51:38;12.60;99.90
8095;DHT22;4090;49.270;8.696;2024-03-02T16:54:20;12.60;99.90
8095;DHT22;4090;49.270;8.696;2024-03-02T16:57:02;12.60;99.90
8095;DHT22;4090;49.270;8.696;2024-03-02T16:59:44;12.50;99.90
8095;DHT22;4090;49.270;8.696;2024-03-02T17:02:28;12.50;99.90
8095;DHT22;4090;49.270;8.696;2024-03-02T17:05:10;12.50;99.90
8095;DHT22;4090;49.270;8.696;2024-03-02T17:07:52;12.50;99.90
8095;DHT22;4090;49.270;8.696;2024-03-02T17:10:34;12.40;99.90
8095;DHT22;4090;49.270;8.696;2024-03-02T17:13:16;12.40;99.90
8095;DHT22;4090;49.270;8.696;2024-03-02T17:15:57;12.40;99.90
8095;DHT22;4090;49.270;8.696;2024-03-02T17:18:41;12.40;99.90
8095;DHT22;4090;49.270;8.696;2024-03-02T17:21:22;12.30;99.90
8095;DHT22;4090;49.270;8.696;2024-03-02T17:24:05;12.30;99.90
8095;DHT22;4090;49.270;8.696;2024-03-02T17:26:47;12.30;99.90
8095;DHT22;4090;49.270;8.696;2024-03-02T17:29:29;12.30;99.90
8095;DHT22;4090;49.270;8.696;2024-03-02T17:32:14;12.30;99.90
8095;DHT22;4090;49.270;8.696;2024-03-02T17:34:57;12.20;99.90
8095;DHT22;4090;49.270;8.696;2024-03-02T17:37:39;12.20;99.90
8095;DHT22;4090;49.270;8.696;2024-03-02T17:40:21;12.20;99.90
8095;DHT22;4090;49.270;8.696;2024-03-02T17:43:04;12.20;99.90
8095;DHT22;4090;49.270;8.696;2024-03-02T17:45:45;12.20;99.90
8095;DHT22;4090;49.270;8.696;2024-03-02T17:48:27;12.20;99.90
8095;DHT22;4090;49.270;8.696;2024-03-02T17:51:10;12.20;99.90
8095;DHT22;4090;49.270;8.696;2024-03-02T17:53:53;12.30;99.90
8095;DHT22;4090;49.270;8.696;2024-03-02T17:56:35;12.30;99.90